< < Back
Terminal Aerodrome Forecast


Current Version              Previous Versions:   1  2  3  4  5  6  7  8  9  

Terminal Aerodrome Forecast

391
FTUS42 KFFC 281131
TAFCSG
TAF
KCSG 281131Z 2812/2912 VRB03KT P6SM FEW120 SCT250
     FM281400 33006KT P6SM SCT040
     FM290100 00000KT P6SM SCT120=

Latest METAR

301
SAUS70 KWBC 282000
MTRCSG
METAR KCSG 281951Z 30003KT 10SM BKN060 35/19 A2994 RMK AO2 SLP131
T03500194


USA.gov is the U.S. government's official web portal to all federal, state and local government web resources and services.